aviador You're here:

ZMUB Decoded Metar

ULAN BATOR in MONGOLIA
Report Time2018-02-22 06:30:00
UTC Time2018-02-22 06:47:44
Flight Rules vfr VFR
Wind250° at 6 kt
W.Decomp.*RWY 32: 2.3 kt HW 5.5 kt LCW
RWY 33: 1.3 kt HW 5.8 kt LCW
W.Rank250° ranks 20
Current wind is below 250° avg. (7.0)
Visibility8000 m
Phenomena:N/A
Clouds:N/A
Expected CloudBase > 2,400 ft AGL from Temp-Dew spread
CeilingNone
Temp-13°C (ISA -19)
Dew Point-19°C (61% RH)
AAT-18.7°C
QNH1007 hPa
Density Alt2,198 ft
Elevation4,364 ft
Report Wrong Elevation
Raw Report
ZMUB 220630Z 25003MPS 8000NW NSC M13/M19 Q1007 NOSIG RMK QFE648.8
57 NW MO=

Extra information for ZMUB:More info

Metar Taf Metar & Taf Last 4 Metars F.Rules Stats Wind Profile Meteogram Temp Stats Airport Information Weather charts Add Link Nearby VenuesMetar ALERT Operation Metar Decoded Social comments